createdAt,value
2019-05-15T00:00:32.692Z,4.53
2019-05-15T00:03:04.162Z,4.45
2019-05-15T00:05:35.140Z,4.40
2019-05-15T00:08:09.031Z,4.38
2019-05-15T00:10:39.431Z,4.34
2019-05-15T00:13:10.766Z,4.34
2019-05-15T00:15:41.654Z,4.36
2019-05-15T00:18:12.865Z,4.34
2019-05-15T00:20:43.881Z,4.29
2019-05-15T00:23:15.126Z,4.21
2019-05-15T00:25:48.586Z,4.15
2019-05-15T00:28:18.522Z,4.14
2019-05-15T00:30:49.843Z,4.11
2019-05-15T00:33:20.822Z,4.10
2019-05-15T00:35:51.976Z,4.08
2019-05-15T00:38:22.884Z,4.05
2019-05-15T00:40:54.004Z,4.03
2019-05-15T00:43:24.897Z,3.99
2019-05-15T00:45:58.440Z,3.95
2019-05-15T00:48:29.298Z,3.91
2019-05-15T00:51:00.608Z,3.90
2019-05-15T00:53:31.554Z,3.86
2019-05-15T00:56:02.776Z,3.84
2019-05-15T00:58:33.815Z,3.80
2019-05-15T01:01:05.224Z,3.80
2019-05-15T01:03:38.538Z,3.76
2019-05-15T01:06:08.458Z,3.72
2019-05-15T01:08:39.678Z,3.67
2019-05-15T01:11:10.634Z,3.64
2019-05-15T01:13:41.779Z,3.59
2019-05-15T01:16:12.692Z,3.60
2019-05-15T01:18:43.888Z,3.59
2019-05-15T01:21:14.796Z,3.60
2019-05-15T01:23:48.246Z,3.58
2019-05-15T01:26:19.008Z,3.52
2019-05-15T01:28:50.228Z,3.51
2019-05-15T01:31:21.110Z,3.46
2019-05-15T01:33:52.258Z,3.47
2019-05-15T01:36:23.192Z,3.45
2019-05-15T01:38:53.303Z,3.44
2019-05-15T01:41:24.502Z,3.44
2019-05-15T01:43:55.386Z,3.43
2019-05-15T01:46:28.567Z,3.35
2019-05-15T01:48:59.210Z,3.27
2019-05-15T01:51:30.437Z,3.20
2019-05-15T01:54:01.323Z,3.18
2019-05-15T01:56:32.536Z,3.13
2019-05-15T01:59:03.522Z,3.07
2019-05-15T02:01:34.736Z,3.09
2019-05-15T02:04:05.719Z,3.10
2019-05-15T02:06:39.031Z,3.07
2019-05-15T02:09:09.545Z,3.06
2019-05-15T02:11:39.571Z,3.06
2019-05-15T02:14:10.700Z,3.11
2019-05-15T02:16:41.570Z,3.19
2019-05-15T02:19:12.815Z,3.22
2019-05-15T02:21:43.691Z,3.22
2019-05-15T02:24:14.934Z,3.21
2019-05-15T02:26:48.082Z,3.28
2019-05-15T02:29:24.719Z,3.24
2019-05-15T02:31:51.471Z,3.19
2019-05-15T02:34:22.588Z,3.14
2019-05-15T02:36:53.579Z,3.10
2019-05-15T02:39:24.834Z,3.06
2019-05-15T02:41:55.813Z,3.00
2019-05-15T02:44:28.909Z,2.99
2019-05-15T02:46:59.122Z,2.98
2019-05-15T02:49:30.394Z,2.95
2019-05-15T02:52:01.704Z,2.97
2019-05-15T02:54:32.615Z,2.93
2019-05-15T02:57:03.822Z,2.87
2019-05-15T02:59:34.834Z,2.90
2019-05-15T03:02:06.078Z,2.86
2019-05-15T03:04:39.940Z,2.84
2019-05-15T03:07:09.973Z,2.90
2019-05-15T03:09:40.920Z,2.85
2019-05-15T03:12:12.238Z,2.82
2019-05-15T03:14:43.253Z,2.84
2019-05-15T03:17:14.374Z,2.85
2019-05-15T03:19:45.396Z,2.87
2019-05-15T03:22:15.575Z,2.86
2019-05-15T03:24:49.999Z,2.84
2019-05-15T03:27:19.861Z,2.86
2019-05-15T03:29:51.234Z,2.89
2019-05-15T03:32:32.156Z,2.94
2019-05-15T03:34:57.294Z,2.95
2019-05-15T03:37:33.410Z,3.01
2019-05-15T03:40:00.753Z,2.99
2019-05-15T03:42:31.802Z,3.05
2019-05-15T03:45:03.099Z,3.06
2019-05-15T03:47:34.082Z,3.04
2019-05-15T03:50:09.115Z,3.12
2019-05-15T03:52:40.243Z,3.15
2019-05-15T03:55:11.236Z,3.16
2019-05-15T03:57:42.522Z,3.17
2019-05-15T04:00:14.058Z,3.12
2019-05-15T04:02:45.259Z,3.13
2019-05-15T04:05:16.327Z,3.15
2019-05-15T04:07:49.638Z,3.15
2019-05-15T04:10:20.277Z,3.19
2019-05-15T04:12:51.696Z,3.18
2019-05-15T04:15:22.724Z,3.17
2019-05-15T04:17:53.948Z,3.18
2019-05-15T04:20:24.909Z,3.21
2019-05-15T04:22:55.962Z,3.20
2019-05-15T04:25:29.692Z,3.20
2019-05-15T04:28:01.666Z,3.25
2019-05-15T04:30:32.585Z,3.29
2019-05-15T04:33:02.707Z,3.36
2019-05-15T04:35:33.950Z,3.46
2019-05-15T04:38:05.141Z,3.54
2019-05-15T04:40:39.287Z,3.61
2019-05-15T04:43:10.405Z,3.70
2019-05-15T04:45:41.988Z,3.79
2019-05-15T04:48:12.973Z,3.88
2019-05-15T04:50:44.170Z,3.99
2019-05-15T04:53:15.058Z,4.06
2019-05-15T04:55:49.104Z,4.16
2019-05-15T04:58:20.749Z,4.28
2019-05-15T05:00:55.622Z,4.39
2019-05-15T05:03:29.151Z,4.51
2019-05-15T05:05:59.265Z,4.60
2019-05-15T05:08:30.673Z,4.69
2019-05-15T05:11:01.739Z,4.77
2019-05-15T05:13:32.957Z,4.87
2019-05-15T05:16:04.001Z,4.98
2019-05-15T05:18:35.117Z,5.11
2019-05-15T05:21:07.766Z,5.26
2019-05-15T05:23:38.998Z,5.38
2019-05-15T05:26:11.209Z,5.49
2019-05-15T05:28:45.837Z,5.60
2019-05-15T05:31:19.059Z,5.78
2019-05-15T05:33:49.928Z,5.87
2019-05-15T05:36:24.461Z,5.94
2019-05-15T05:38:58.311Z,6.01
2019-05-15T05:41:28.898Z,6.18
2019-05-15T05:43:59.162Z,6.32
2019-05-15T05:46:30.384Z,6.47
2019-05-15T05:49:01.349Z,6.58
2019-05-15T05:51:32.460Z,6.98
2019-05-15T05:54:03.506Z,8.89
2019-05-15T05:56:34.602Z,10.25
2019-05-15T05:59:05.642Z,10.05
2019-05-15T06:01:43.556Z,10.43
2019-05-15T06:04:09.562Z,10.18
2019-05-15T06:06:40.693Z,10.01
2019-05-15T06:09:11.730Z,10.97
2019-05-15T06:11:43.016Z,11.57
2019-05-15T06:14:14.140Z,12.45
2019-05-15T06:16:48.193Z,13.51
2019-05-15T06:19:19.231Z,12.24
2019-05-15T06:21:57.172Z,10.36
2019-05-15T06:24:22.576Z,10.08
2019-05-15T06:26:53.551Z,10.57
2019-05-15T06:29:25.164Z,11.24
2019-05-15T06:31:56.110Z,13.38
2019-05-15T06:34:28.549Z,14.41
2019-05-15T06:36:59.623Z,13.31
2019-05-15T06:39:30.763Z,11.38
2019-05-15T06:42:01.670Z,10.65
2019-05-15T06:44:32.907Z,11.09
2019-05-15T06:47:03.873Z,11.10
2019-05-15T06:49:34.911Z,11.67
2019-05-15T06:52:06.006Z,11.23
2019-05-15T06:54:37.768Z,10.46
2019-05-15T06:57:09.310Z,10.09
2019-05-15T06:59:40.431Z,9.93
2019-05-15T07:02:11.764Z,10.03
2019-05-15T07:04:42.749Z,10.13
2019-05-15T07:07:14.092Z,10.62
2019-05-15T07:09:45.224Z,10.75
2019-05-15T07:12:18.524Z,10.95
2019-05-15T07:14:49.193Z,11.12
2019-05-15T07:17:20.368Z,11.44
2019-05-15T07:19:51.315Z,11.40
2019-05-15T07:22:22.665Z,11.29
2019-05-15T07:24:53.548Z,11.23
2019-05-15T07:27:23.715Z,11.34
2019-05-15T07:29:54.912Z,11.37
2019-05-15T07:32:28.383Z,11.49
2019-05-15T07:34:58.917Z,11.73
2019-05-15T07:37:29.868Z,11.82
2019-05-15T07:40:01.049Z,12.27
2019-05-15T07:42:32.308Z,12.80
2019-05-15T07:45:04.346Z,13.11
2019-05-15T07:47:35.296Z,13.43
2019-05-15T07:50:08.797Z,13.39
2019-05-15T07:52:40.628Z,13.06
2019-05-15T07:55:12.751Z,12.82
2019-05-15T07:57:43.774Z,12.76
2019-05-15T08:00:18.544Z,12.81
2019-05-15T08:02:48.859Z,12.90
2019-05-15T08:05:20.083Z,13.00
2019-05-15T08:07:51.190Z,12.74
2019-05-15T08:10:22.601Z,12.76
2019-05-15T08:12:53.666Z,13.06
2019-05-15T08:15:25.027Z,13.24
2019-05-15T08:20:30.336Z,13.80
2019-05-15T08:23:01.470Z,14.17
2019-05-15T08:25:35.449Z,14.14
2019-05-15T08:26:05.637Z,13.19
2019-05-15T08:28:05.351Z,14.43
2019-05-15T08:30:38.779Z,14.14
2019-05-15T08:33:09.876Z,13.51
2019-05-15T08:35:45.649Z,13.28
2019-05-15T08:38:14.314Z,13.22
2019-05-15T08:40:45.581Z,13.64
2019-05-15T08:43:18.420Z,14.01
2019-05-15T08:45:50.049Z,14.18
2019-05-15T08:48:21.021Z,14.72
2019-05-15T08:50:52.255Z,14.50
2019-05-15T08:53:23.211Z,14.54
2019-05-15T08:55:54.355Z,14.82
2019-05-15T08:58:25.284Z,14.75
2019-05-15T09:00:58.779Z,14.71
2019-05-15T09:03:29.261Z,15.30
2019-05-15T09:06:00.543Z,15.58
2019-05-15T09:08:31.510Z,15.98
2019-05-15T09:11:02.728Z,15.88
2019-05-15T09:13:33.687Z,15.92
2019-05-15T09:16:03.803Z,16.11
2019-05-15T09:18:34.969Z,16.05
2019-05-15T09:21:08.576Z,15.87
2019-05-15T09:23:39.133Z,16.31
2019-05-15T09:26:10.174Z,16.61
2019-05-15T09:28:41.321Z,16.43
2019-05-15T09:31:12.260Z,16.31
2019-05-15T09:33:43.330Z,16.24
2019-05-15T09:36:20.985Z,16.08
2019-05-15T09:38:52.231Z,16.43
2019-05-15T09:41:28.468Z,16.44
2019-05-15T09:43:59.151Z,16.78
2019-05-15T09:46:30.141Z,16.58
2019-05-15T09:49:00.611Z,16.11
2019-05-15T09:51:31.792Z,15.54
2019-05-15T09:54:02.763Z,15.53
2019-05-15T09:56:33.953Z,15.72
2019-05-15T09:59:05.099Z,16.20
2019-05-15T10:01:39.270Z,15.62
2019-05-15T10:04:08.844Z,16.09
2019-05-15T10:06:40.193Z,15.59
2019-05-15T10:09:11.227Z,15.95
2019-05-15T10:11:42.527Z,16.21
2019-05-15T10:14:13.576Z,16.66
2019-05-15T10:16:44.903Z,16.83
2019-05-15T10:19:18.354Z,17.40
2019-05-15T10:21:53.073Z,17.63
2019-05-15T10:24:21.542Z,17.18
2019-05-15T10:26:51.639Z,16.83
2019-05-15T10:29:22.962Z,17.60
2019-05-15T10:31:53.994Z,17.27
2019-05-15T10:34:25.349Z,17.26
2019-05-15T10:36:56.214Z,16.33
2019-05-15T10:39:28.782Z,16.92
2019-05-15T10:42:00.023Z,17.46
2019-05-15T10:44:35.519Z,17.28
2019-05-15T10:47:08.833Z,17.96
2019-05-15T10:49:39.846Z,17.14
2019-05-15T10:52:12.443Z,17.41
2019-05-15T10:54:43.684Z,18.30
2019-05-15T10:57:14.728Z,19.12
2019-05-15T10:59:44.828Z,18.59
2019-05-15T11:02:16.152Z,18.55
2019-05-15T11:04:48.695Z,17.32
2019-05-15T11:07:19.943Z,16.82
2019-05-15T11:09:50.936Z,17.46
2019-05-15T11:12:22.062Z,17.94
2019-05-15T11:14:52.954Z,17.88
2019-05-15T11:17:24.400Z,17.85
2019-05-15T11:19:55.373Z,18.23
2019-05-15T11:22:29.876Z,18.55
2019-05-15T11:25:00.834Z,19.06
2019-05-15T11:27:32.226Z,19.48
2019-05-15T11:30:04.519Z,19.52
2019-05-15T11:32:35.649Z,17.81
2019-05-15T11:35:09.508Z,17.96
2019-05-15T11:37:46.021Z,17.90
2019-05-15T11:40:13.947Z,17.78
2019-05-15T11:42:48.749Z,18.12
2019-05-15T11:45:21.235Z,18.59
2019-05-15T11:47:53.752Z,19.09
2019-05-15T11:50:25.204Z,18.66
2019-05-15T11:52:58.485Z,18.39
2019-05-15T11:55:29.208Z,18.26
2019-05-15T11:58:00.497Z,18.52
2019-05-15T12:00:33.410Z,19.03
2019-05-15T12:03:04.444Z,19.29
2019-05-15T12:05:38.280Z,19.97
2019-05-15T12:08:10.673Z,19.46
2019-05-15T12:10:41.425Z,19.89
2019-05-15T12:13:12.550Z,19.70
2019-05-15T12:15:44.168Z,19.69
2019-05-15T12:18:15.425Z,19.69
2019-05-15T12:20:48.576Z,20.45
2019-05-15T12:23:22.928Z,20.45
2019-05-15T12:25:53.875Z,20.91
2019-05-15T12:28:25.038Z,21.48
2019-05-15T12:33:30.784Z,20.80
2019-05-15T12:36:10.196Z,21.49
2019-05-15T12:38:39.926Z,21.65
2019-05-15T13:01:32.237Z,16.93
2019-05-15T13:04:03.260Z,17.17
2019-05-15T13:06:47.332Z,16.66
2019-05-15T13:09:08.692Z,16.66
2019-05-15T13:11:40.219Z,16.12
2019-05-15T13:14:11.258Z,16.00
2019-05-15T13:16:42.404Z,15.57
2019-05-15T13:19:13.515Z,15.75
2019-05-15T13:21:44.882Z,16.28
2019-05-15T13:24:15.769Z,16.57
2019-05-15T13:26:47.657Z,16.36
2019-05-15T13:29:18.961Z,16.13
2019-05-15T13:31:50.005Z,16.22
2019-05-15T13:34:22.089Z,15.84
2019-05-15T13:36:54.020Z,16.25
2019-05-15T13:39:25.162Z,16.40
2019-05-15T13:41:58.386Z,16.06
2019-05-15T13:44:29.423Z,16.05
2019-05-15T13:47:00.351Z,15.83
2019-05-15T13:49:31.466Z,15.38
2019-05-15T13:52:02.373Z,14.86
2019-05-15T13:54:33.702Z,14.89
2019-05-15T13:57:04.714Z,14.94
2019-05-15T13:59:38.881Z,14.92
2019-05-15T14:02:08.798Z,14.59
2019-05-15T14:04:38.966Z,14.31
2019-05-15T14:07:10.285Z,14.51
2019-05-15T14:09:44.684Z,14.69
2019-05-15T14:12:17.963Z,15.28
2019-05-15T14:14:49.128Z,15.72
2019-05-15T14:17:20.408Z,15.43
2019-05-15T14:19:51.441Z,15.15
2019-05-15T14:22:22.775Z,15.05
2019-05-15T14:24:53.675Z,14.60
2019-05-15T14:27:24.930Z,14.14
2019-05-15T14:29:58.065Z,13.74
2019-05-15T14:32:38.133Z,13.82
2019-05-15T14:35:01.756Z,13.70
2019-05-15T14:37:31.850Z,13.08
2019-05-15T14:40:02.999Z,12.84
2019-05-15T14:42:34.039Z,12.89
2019-05-15T14:45:09.132Z,12.84
2019-05-15T14:47:40.226Z,13.09
2019-05-15T14:50:11.986Z,13.05
2019-05-15T14:52:47.988Z,12.75
2019-05-15T14:55:20.531Z,12.38
2019-05-15T14:57:51.574Z,12.53
2019-05-15T15:00:28.581Z,12.36
2019-05-15T15:02:58.272Z,12.35
2019-05-15T15:05:28.658Z,12.35
2019-05-15T15:08:17.214Z,12.31
2019-05-15T15:10:35.384Z,12.44
2019-05-15T15:13:09.022Z,12.44
2019-05-15T15:15:38.652Z,12.25
2019-05-15T15:18:10.163Z,12.30
2019-05-15T15:20:41.058Z,12.35
2019-05-15T15:23:12.193Z,12.18
2019-05-15T15:25:43.080Z,11.90
2019-05-15T15:28:14.148Z,11.74
2019-05-15T15:30:48.441Z,11.69
2019-05-15T15:33:18.854Z,11.45
2019-05-15T15:35:49.817Z,11.50
2019-05-15T15:38:38.072Z,11.55
2019-05-15T15:40:54.640Z,11.35
2019-05-15T15:43:28.637Z,11.29
2019-05-15T15:45:59.004Z,11.27
2019-05-15T15:48:30.422Z,11.38
2019-05-15T15:51:01.352Z,11.40
2019-05-15T15:53:31.555Z,11.32
2019-05-15T15:56:03.128Z,11.26
2019-05-15T15:58:34.197Z,11.26
2019-05-15T16:01:05.439Z,11.29
2019-05-15T16:03:38.067Z,11.15
2019-05-15T16:06:09.327Z,11.08
2019-05-15T16:08:52.166Z,11.11
2019-05-15T16:11:13.010Z,11.08
2019-05-15T16:13:46.351Z,10.93
2019-05-15T16:16:17.930Z,10.88
2019-05-15T16:18:49.282Z,10.87
2019-05-15T16:21:20.671Z,10.86
2019-05-15T16:23:51.663Z,10.97
2019-05-15T16:26:21.805Z,11.02
2019-05-15T16:28:53.026Z,11.02
2019-05-15T16:31:24.081Z,10.90
2019-05-15T16:33:55.265Z,10.71
2019-05-15T16:36:26.158Z,10.70
2019-05-15T16:39:07.519Z,10.69
2019-05-15T16:41:30.194Z,10.56
2019-05-15T16:44:01.473Z,10.49
2019-05-15T16:46:32.537Z,10.48
2019-05-15T16:49:05.520Z,10.50
2019-05-15T16:51:38.278Z,10.53
2019-05-15T16:54:09.578Z,10.54
2019-05-15T16:56:43.562Z,10.58
2019-05-15T16:59:18.261Z,10.59
2019-05-15T17:01:49.208Z,10.57
2019-05-15T17:04:19.342Z,10.47
2019-05-15T17:06:50.647Z,10.46
2019-05-15T17:09:21.991Z,10.49
2019-05-15T17:11:53.216Z,10.27
2019-05-15T17:14:24.350Z,10.19
2019-05-15T17:16:55.688Z,10.09
2019-05-15T17:19:29.300Z,10.12
2019-05-15T17:21:59.623Z,10.13
2019-05-15T17:24:30.576Z,10.17
2019-05-15T17:27:01.875Z,10.09
2019-05-15T17:29:32.946Z,10.11
2019-05-15T17:32:04.117Z,10.08
2019-05-15T17:34:35.117Z,9.89
2019-05-15T17:37:05.350Z,9.86
2019-05-15T17:39:40.810Z,9.84
2019-05-15T17:42:11.236Z,9.78
2019-05-15T17:44:42.403Z,9.67
2019-05-15T17:47:13.511Z,9.61
2019-05-15T17:49:44.568Z,9.59
2019-05-15T17:52:18.487Z,9.59
2019-05-15T17:54:50.031Z,9.49
2019-05-15T17:57:20.911Z,9.50
2019-05-15T17:59:52.054Z,9.56
2019-05-15T18:02:23.108Z,9.58
2019-05-15T18:04:54.501Z,9.47
2019-05-15T18:07:28.022Z,9.47
2019-05-15T18:09:59.112Z,9.43
2019-05-15T18:12:30.504Z,9.41
2019-05-15T18:15:01.940Z,9.38
2019-05-15T18:17:38.866Z,9.31
2019-05-15T18:20:10.061Z,9.31
2019-05-15T18:22:41.453Z,9.25
2019-05-15T18:25:12.940Z,9.26
2019-05-15T18:27:47.910Z,9.23
2019-05-15T18:30:18.488Z,9.20
2019-05-15T18:32:49.625Z,9.16
2019-05-15T18:35:20.589Z,9.13
2019-05-15T18:37:51.858Z,9.13
2019-05-15T18:40:22.974Z,9.17
2019-05-15T18:42:54.194Z,9.18
2019-05-15T18:45:25.100Z,9.19
2019-05-15T18:47:58.813Z,9.19
2019-05-15T18:50:30.047Z,9.15
2019-05-15T18:53:01.010Z,9.17
2019-05-15T18:55:32.326Z,9.15
2019-05-15T18:58:03.610Z,9.11
2019-05-15T19:00:36.189Z,9.14
2019-05-15T19:03:19.074Z,9.14
2019-05-15T19:05:40.177Z,9.09
2019-05-15T19:08:11.139Z,9.09
2019-05-15T19:10:42.382Z,9.09
2019-05-15T19:13:13.262Z,9.08
2019-05-15T19:15:44.674Z,9.08
2019-05-15T19:18:15.659Z,9.08
2019-05-15T19:20:48.709Z,9.09
2019-05-15T19:23:19.711Z,9.08
2019-05-15T19:25:49.752Z,9.07
2019-05-15T19:28:20.988Z,9.07
2019-05-15T19:30:51.937Z,9.06
2019-05-15T19:33:34.539Z,9.08
2019-05-15T19:35:55.718Z,9.04
2019-05-15T19:38:27.959Z,9.03
2019-05-15T19:41:03.074Z,8.99
2019-05-15T19:43:31.914Z,9.00
2019-05-15T19:46:03.033Z,9.02
2019-05-15T19:48:34.417Z,9.02
2019-05-15T19:51:05.466Z,9.00
2019-05-15T19:53:36.627Z,9.02
2019-05-15T19:56:08.429Z,9.02
2019-05-15T19:58:38.702Z,9.03
2019-05-15T20:01:09.945Z,9.03
2019-05-15T20:03:49.378Z,9.02
2019-05-15T20:06:13.859Z,9.04
2019-05-15T20:08:44.744Z,9.04
2019-05-15T20:11:18.045Z,9.04
2019-05-15T20:13:49.003Z,9.04
2019-05-15T20:16:21.432Z,9.03
2019-05-15T20:18:52.532Z,9.06
2019-05-15T20:21:23.728Z,9.04
2019-05-15T20:23:54.679Z,9.04
2019-05-15T20:26:28.468Z,9.03
2019-05-15T20:28:58.515Z,9.02
2019-05-15T20:31:28.739Z,8.94
2019-05-15T20:34:05.155Z,8.93
2019-05-15T20:36:32.535Z,8.93
2019-05-15T20:39:05.081Z,8.95
2019-05-15T20:41:38.071Z,8.97
2019-05-15T20:44:09.018Z,8.98
2019-05-15T20:46:39.997Z,8.98
2019-05-15T20:49:11.159Z,8.96
2019-05-15T20:51:42.108Z,8.94
2019-05-15T20:54:13.453Z,8.92
2019-05-15T20:56:44.353Z,8.93
2019-05-15T20:59:15.623Z,8.89
2019-05-15T21:01:48.296Z,8.87
2019-05-15T21:04:20.654Z,8.84
2019-05-15T21:06:52.167Z,8.85
2019-05-15T21:09:22.360Z,8.80
2019-05-15T21:11:53.573Z,8.79
2019-05-15T21:14:24.514Z,8.79
2019-05-15T21:16:55.617Z,8.80
2019-05-15T21:19:27.930Z,8.79
2019-05-15T21:21:59.425Z,8.82
2019-05-15T21:24:30.344Z,8.81
2019-05-15T21:27:01.387Z,8.77
2019-05-15T21:29:32.323Z,8.76
2019-05-15T21:32:03.628Z,8.74
2019-05-15T21:34:37.899Z,8.70
2019-05-15T21:37:08.576Z,8.69
2019-05-15T21:39:39.678Z,8.70
2019-05-15T21:42:09.803Z,8.67
2019-05-15T21:44:40.912Z,8.66
2019-05-15T21:47:11.841Z,8.66
2019-05-15T21:49:42.880Z,8.64
2019-05-15T21:52:13.859Z,8.60
2019-05-15T21:54:45.145Z,8.56
2019-05-15T21:57:32.330Z,8.51
2019-05-15T21:59:49.069Z,8.49
2019-05-15T22:02:20.648Z,8.43
2019-05-15T22:04:55.986Z,8.28
2019-05-15T22:07:42.664Z,8.09
2019-05-15T22:10:21.134Z,7.94
2019-05-15T22:12:52.204Z,7.91
2019-05-15T22:15:23.615Z,7.84
2019-05-15T22:17:54.682Z,7.78
2019-05-15T22:20:24.810Z,7.73
2019-05-15T22:22:55.938Z,7.71
2019-05-15T22:25:29.570Z,7.72
2019-05-15T22:28:01.111Z,7.72
2019-05-15T22:30:32.165Z,7.72
2019-05-15T22:33:03.412Z,7.74
2019-05-15T22:35:34.626Z,7.78
2019-05-15T22:38:05.793Z,7.80
2019-05-15T22:40:38.030Z,7.80
2019-05-15T22:43:10.829Z,7.80
2019-05-15T22:45:41.884Z,7.82
2019-05-15T22:48:13.200Z,7.82
2019-05-15T22:50:44.067Z,7.82
2019-05-15T22:53:17.656Z,7.85
2019-05-15T22:55:48.542Z,7.86
2019-05-15T22:58:18.678Z,7.86
2019-05-15T23:00:49.798Z,7.86
2019-05-15T23:03:20.831Z,7.84
2019-05-15T23:05:52.004Z,7.84
2019-05-15T23:08:23.029Z,7.85
2019-05-15T23:10:54.531Z,7.87
2019-05-15T23:13:25.489Z,7.89
2019-05-15T23:15:58.429Z,7.90
2019-05-15T23:18:29.686Z,7.87
2019-05-15T23:21:00.733Z,7.85
2019-05-15T23:23:31.676Z,7.81
2019-05-15T23:26:02.876Z,7.80
2019-05-15T23:28:33.922Z,7.83
2019-05-15T23:31:04.028Z,7.86
2019-05-15T23:33:35.258Z,7.86
2019-05-15T23:36:06.145Z,7.88
2019-05-15T23:38:38.450Z,7.88
2019-05-15T23:41:09.536Z,7.86
2019-05-15T23:43:40.682Z,7.82
2019-05-15T23:46:11.715Z,7.82
2019-05-15T23:48:42.920Z,7.83
2019-05-15T23:51:13.965Z,7.85
2019-05-15T23:53:45.128Z,7.86
2019-05-15T23:56:18.619Z,7.85
2019-05-15T23:58:49.147Z,7.85
